sensor_id;sensor_type;location;lat;lon;timestamp;temperature;humidity
7232;DHT22;3657;49.630;11.018;2023-12-28T00:02:06;5.80;99.90
7232;DHT22;3657;49.630;11.018;2023-12-28T00:04:33;5.80;99.90
7232;DHT22;3657;49.630;11.018;2023-12-28T00:07:01;5.90;99.90
7232;DHT22;3657;49.630;11.018;2023-12-28T00:09:28;5.90;99.90
7232;DHT22;3657;49.630;11.018;2023-12-28T00:11:55;5.90;99.90
7232;DHT22;3657;49.630;11.018;2023-12-28T00:14:22;5.90;99.90
7232;DHT22;3657;49.630;11.018;2023-12-28T00:16:48;5.90;99.90
7232;DHT22;3657;49.630;11.018;2023-12-28T00:19:16;5.90;99.90
7232;DHT22;3657;49.630;11.018;2023-12-28T00:21:45;5.90;99.90
7232;DHT22;3657;49.630;11.018;2023-12-28T00:24:11;5.80;99.90
7232;DHT22;3657;49.630;11.018;2023-12-28T00:26:38;5.80;99.90
7232;DHT22;3657;49.630;11.018;2023-12-28T00:29:05;5.80;99.90
7232;DHT22;3657;49.630;11.018;2023-12-28T00:31:32;5.80;99.90
7232;DHT22;3657;49.630;11.018;2023-12-28T00:33:58;5.70;99.90
7232;DHT22;3657;49.630;11.018;2023-12-28T00:36:27;5.70;99.90
7232;DHT22;3657;49.630;11.018;2023-12-28T00:38:53;5.60;99.90
7232;DHT22;3657;49.630;11.018;2023-12-28T00:41:20;5.60;99.90
7232;DHT22;3657;49.630;11.018;2023-12-28T00:43:47;5.60;99.90
7232;DHT22;3657;49.630;11.018;2023-12-28T00:46:13;5.60;99.90
7232;DHT22;3657;49.630;11.018;2023-12-28T00:48:40;5.50;99.90
7232;DHT22;3657;49.630;11.018;2023-12-28T00:51:07;5.60;99.90
7232;DHT22;3657;49.630;11.018;2023-12-28T00:53:35;5.50;99.90
7232;DHT22;3657;49.630;11.018;2023-12-28T00:56:02;5.50;99.90
7232;DHT22;3657;49.630;11.018;2023-12-28T00:58:29;5.50;99.90
7232;DHT22;3657;49.630;11.018;2023-12-28T01:00:56;5.50;99.90
7232;DHT22;3657;49.630;11.018;2023-12-28T01:03:23;5.50;99.90
7232;DHT22;3657;49.630;11.018;2023-12-28T01:05:50;5.50;99.90
7232;DHT22;3657;49.630;11.018;2023-12-28T01:08:18;5.40;99.90
7232;DHT22;3657;49.630;11.018;2023-12-28T01:10:46;5.40;99.90
7232;DHT22;3657;49.630;11.018;2023-12-28T01:13:13;5.40;99.90
7232;DHT22;3657;49.630;11.018;2023-12-28T01:15:39;5.30;99.90
7232;DHT22;3657;49.630;11.018;2023-12-28T01:18:06;5.30;99.90
7232;DHT22;3657;49.630;11.018;2023-12-28T01:20:33;5.30;99.90
7232;DHT22;3657;49.630;11.018;2023-12-28T01:23:00;5.30;99.90
7232;DHT22;3657;49.630;11.018;2023-12-28T01:25:27;5.40;99.90
7232;DHT22;3657;49.630;11.018;2023-12-28T01:27:55;5.50;99.90
7232;DHT22;3657;49.630;11.018;2023-12-28T01:30:22;5.50;99.90
7232;DHT22;3657;49.630;11.018;2023-12-28T01:32:49;5.50;99.90
7232;DHT22;3657;49.630;11.018;2023-12-28T01:35:15;5.50;99.90
7232;DHT22;3657;49.630;11.018;2023-12-28T01:37:42;5.40;99.90
7232;DHT22;3657;49.630;11.018;2023-12-28T01:40:10;5.40;99.90
7232;DHT22;3657;49.630;11.018;2023-12-28T01:42:37;5.50;99.90
7232;DHT22;3657;49.630;11.018;2023-12-28T01:45:06;5.50;99.90
7232;DHT22;3657;49.630;11.018;2023-12-28T01:47:34;5.50;99.90
7232;DHT22;3657;49.630;11.018;2023-12-28T01:50:02;5.50;99.90
7232;DHT22;3657;49.630;11.018;2023-12-28T01:52:30;5.60;99.90
7232;DHT22;3657;49.630;11.018;2023-12-28T01:54:57;5.60;99.90
7232;DHT22;3657;49.630;11.018;2023-12-28T01:57:24;5.50;99.90
7232;DHT22;3657;49.630;11.018;2023-12-28T01:59:51;5.50;99.90
7232;DHT22;3657;49.630;11.018;2023-12-28T02:02:20;5.50;99.90
7232;DHT22;3657;49.630;11.018;2023-12-28T02:04:47;5.50;99.90
7232;DHT22;3657;49.630;11.018;2023-12-28T02:07:14;5.40;99.90
7232;DHT22;3657;49.630;11.018;2023-12-28T02:09:41;5.40;99.90
7232;DHT22;3657;49.630;11.018;2023-12-28T02:12:08;5.40;99.90
7232;DHT22;3657;49.630;11.018;2023-12-28T02:14:35;5.30;99.90
7232;DHT22;3657;49.630;11.018;2023-12-28T02:17:06;5.40;99.90
7232;DHT22;3657;49.630;11.018;2023-12-28T02:19:49;5.30;99.90
7232;DHT22;3657;49.630;11.018;2023-12-28T02:22:16;5.30;99.90
7232;DHT22;3657;49.630;11.018;2023-12-28T02:25:07;5.20;99.90
7232;DHT22;3657;49.630;11.018;2023-12-28T02:27:36;5.20;99.90
7232;DHT22;3657;49.630;11.018;2023-12-28T02:30:05;5.10;99.90
7232;DHT22;3657;49.630;11.018;2023-12-28T02:32:40;5.10;99.90
7232;DHT22;3657;49.630;11.018;2023-12-28T02:35:17;4.90;99.90
7232;DHT22;3657;49.630;11.018;2023-12-28T02:37:44;4.90;99.90
7232;DHT22;3657;49.630;11.018;2023-12-28T02:40:16;5.10;99.90
7232;DHT22;3657;49.630;11.018;2023-12-28T02:42:43;5.20;99.90
7232;DHT22;3657;49.630;11.018;2023-12-28T02:45:10;5.40;99.90
7232;DHT22;3657;49.630;11.018;2023-12-28T02:47:37;5.50;99.90
7232;DHT22;3657;49.630;11.018;2023-12-28T02:50:05;5.40;99.90
7232;DHT22;3657;49.630;11.018;2023-12-28T02:52:32;5.50;99.90
7232;DHT22;3657;49.630;11.018;2023-12-28T02:54:58;5.60;99.90
7232;DHT22;3657;49.630;11.018;2023-12-28T02:57:27;5.60;99.90
7232;DHT22;3657;49.630;11.018;2023-12-28T02:59:53;5.70;99.90
7232;DHT22;3657;49.630;11.018;2023-12-28T03:02:22;5.70;99.90
7232;DHT22;3657;49.630;11.018;2023-12-28T03:04:49;5.60;99.90
7232;DHT22;3657;49.630;11.018;2023-12-28T03:07:16;5.50;99.90
7232;DHT22;3657;49.630;11.018;2023-12-28T03:09:43;5.40;99.90
7232;DHT22;3657;49.630;11.018;2023-12-28T03:12:09;5.20;99.90
7232;DHT22;3657;49.630;11.018;2023-12-28T03:14:38;5.00;99.90
7232;DHT22;3657;49.630;11.018;2023-12-28T03:17:04;5.00;99.90
7232;DHT22;3657;49.630;11.018;2023-12-28T03:19:31;4.90;99.90
7232;DHT22;3657;49.630;11.018;2023-12-28T03:21:58;4.70;99.90
7232;DHT22;3657;49.630;11.018;2023-12-28T03:24:25;4.80;99.90
7232;DHT22;3657;49.630;11.018;2023-12-28T03:26:51;4.70;99.90
7232;DHT22;3657;49.630;11.018;2023-12-28T03:29:19;4.60;99.90
7232;DHT22;3657;49.630;11.018;2023-12-28T03:31:47;4.50;99.90
7232;DHT22;3657;49.630;11.018;2023-12-28T03:34:15;4.50;99.90
7232;DHT22;3657;49.630;11.018;2023-12-28T03:36:43;4.50;99.90
7232;DHT22;3657;49.630;11.018;2023-12-28T03:39:09;4.40;99.90
7232;DHT22;3657;49.630;11.018;2023-12-28T03:41:36;4.40;99.90
7232;DHT22;3657;49.630;11.018;2023-12-28T03:44:03;4.30;99.90
7232;DHT22;3657;49.630;11.018;2023-12-28T03:46:30;4.40;99.90
7232;DHT22;3657;49.630;11.018;2023-12-28T03:48:58;4.40;99.90
7232;DHT22;3657;49.630;11.018;2023-12-28T03:51:25;4.40;99.90
7232;DHT22;3657;49.630;11.018;2023-12-28T03:53:52;4.40;99.90
7232;DHT22;3657;49.630;11.018;2023-12-28T03:56:21;4.40;99.90
7232;DHT22;3657;49.630;11.018;2023-12-28T03:58:47;4.50;99.90
7232;DHT22;3657;49.630;11.018;2023-12-28T04:01:15;4.60;99.90
7232;DHT22;3657;49.630;11.018;2023-12-28T04:03:42;4.80;99.90
7232;DHT22;3657;49.630;11.018;2023-12-28T04:06:10;4.80;99.90
7232;DHT22;3657;49.630;11.018;2023-12-28T04:08:38;4.90;99.90
7232;DHT22;3657;49.630;11.018;2023-12-28T04:11:05;5.00;99.90
7232;DHT22;3657;49.630;11.018;2023-12-28T04:13:31;5.00;99.90
7232;DHT22;3657;49.630;11.018;2023-12-28T04:15:58;5.00;99.90
7232;DHT22;3657;49.630;11.018;2023-12-28T04:18:25;5.00;99.90
7232;DHT22;3657;49.630;11.018;2023-12-28T04:20:52;5.00;99.90
7232;DHT22;3657;49.630;11.018;2023-12-28T04:23:20;5.00;99.90
7232;DHT22;3657;49.630;11.018;2023-12-28T04:25:47;5.00;99.90
7232;DHT22;3657;49.630;11.018;2023-12-28T04:28:14;5.10;99.90
7232;DHT22;3657;49.630;11.018;2023-12-28T04:30:41;5.10;99.90
7232;DHT22;3657;49.630;11.018;2023-12-28T04:33:08;5.10;99.90
7232;DHT22;3657;49.630;11.018;2023-12-28T04:35:35;5.10;99.90
7232;DHT22;3657;49.630;11.018;2023-12-28T04:38:02;5.10;99.90
7232;DHT22;3657;49.630;11.018;2023-12-28T04:40:31;5.20;99.90
7232;DHT22;3657;49.630;11.018;2023-12-28T04:42:59;5.30;99.90
7232;DHT22;3657;49.630;11.018;2023-12-28T04:45:25;5.40;99.90
7232;DHT22;3657;49.630;11.018;2023-12-28T04:47:53;5.50;99.90
7232;DHT22;3657;49.630;11.018;2023-12-28T04:50:20;5.50;99.90
7232;DHT22;3657;49.630;11.018;2023-12-28T04:52:46;5.50;99.90
7232;DHT22;3657;49.630;11.018;2023-12-28T04:55:13;5.60;99.90
7232;DHT22;3657;49.630;11.018;2023-12-28T04:57:42;5.70;99.90
7232;DHT22;3657;49.630;11.018;2023-12-28T05:00:09;5.70;99.90
7232;DHT22;3657;49.630;11.018;2023-12-28T05:02:36;5.80;99.90
7232;DHT22;3657;49.630;11.018;2023-12-28T05:05:03;5.70;99.90
7232;DHT22;3657;49.630;11.018;2023-12-28T05:07:30;5.70;99.90
7232;DHT22;3657;49.630;11.018;2023-12-28T05:09:57;5.70;99.90
7232;DHT22;3657;49.630;11.018;2023-12-28T05:12:24;5.70;99.90
7232;DHT22;3657;49.630;11.018;2023-12-28T05:14:52;5.60;99.90
7232;DHT22;3657;49.630;11.018;2023-12-28T05:17:19;5.60;99.90
7232;DHT22;3657;49.630;11.018;2023-12-28T05:19:45;5.50;99.90
7232;DHT22;3657;49.630;11.018;2023-12-28T05:22:12;5.60;99.90
7232;DHT22;3657;49.630;11.018;2023-12-28T05:24:39;5.50;99.90
7232;DHT22;3657;49.630;11.018;2023-12-28T05:27:06;5.60;99.90
7232;DHT22;3657;49.630;11.018;2023-12-28T05:29:32;5.60;99.90
7232;DHT22;3657;49.630;11.018;2023-12-28T05:32:01;5.60;99.90
7232;DHT22;3657;49.630;11.018;2023-12-28T05:34:27;5.50;99.90
7232;DHT22;3657;49.630;11.018;2023-12-28T05:36:54;5.50;99.90
7232;DHT22;3657;49.630;11.018;2023-12-28T05:39:21;5.40;99.90
7232;DHT22;3657;49.630;11.018;2023-12-28T05:41:48;5.40;99.90
7232;DHT22;3657;49.630;11.018;2023-12-28T05:44:16;5.40;99.90
7232;DHT22;3657;49.630;11.018;2023-12-28T05:46:43;5.50;99.90
7232;DHT22;3657;49.630;11.018;2023-12-28T05:49:11;5.50;99.90
7232;DHT22;3657;49.630;11.018;2023-12-28T05:51:38;5.40;99.90
7232;DHT22;3657;49.630;11.018;2023-12-28T05:54:06;5.40;99.90
7232;DHT22;3657;49.630;11.018;2023-12-28T05:56:33;5.30;99.90
7232;DHT22;3657;49.630;11.018;2023-12-28T05:59:00;5.30;99.90
7232;DHT22;3657;49.630;11.018;2023-12-28T06:01:26;5.30;99.90
7232;DHT22;3657;49.630;11.018;2023-12-28T06:03:53;5.30;99.90
7232;DHT22;3657;49.630;11.018;2023-12-28T06:06:22;5.30;99.90
7232;DHT22;3657;49.630;11.018;2023-12-28T06:08:48;5.30;99.90
7232;DHT22;3657;49.630;11.018;2023-12-28T06:11:16;5.40;99.90
7232;DHT22;3657;49.630;11.018;2023-12-28T06:13:43;5.50;99.90
7232;DHT22;3657;49.630;11.018;2023-12-28T06:16:10;5.60;99.90
7232;DHT22;3657;49.630;11.018;2023-12-28T06:18:37;5.80;99.90
7232;DHT22;3657;49.630;11.018;2023-12-28T06:21:04;5.80;99.90
7232;DHT22;3657;49.630;11.018;2023-12-28T06:23:33;5.80;99.90
7232;DHT22;3657;49.630;11.018;2023-12-28T06:26:04;5.80;99.90
7232;DHT22;3657;49.630;11.018;2023-12-28T06:28:32;5.80;99.90
7232;DHT22;3657;49.630;11.018;2023-12-28T06:30:59;5.80;99.90
7232;DHT22;3657;49.630;11.018;2023-12-28T06:33:26;5.80;99.90
7232;DHT22;3657;49.630;11.018;2023-12-28T06:35:54;5.70;99.90
7232;DHT22;3657;49.630;11.018;2023-12-28T06:38:23;5.80;99.90
7232;DHT22;3657;49.630;11.018;2023-12-28T06:40:51;5.60;99.90
7232;DHT22;3657;49.630;11.018;2023-12-28T06:43:18;5.50;99.90
7232;DHT22;3657;49.630;11.018;2023-12-28T06:45:45;5.50;99.90
7232;DHT22;3657;49.630;11.018;2023-12-28T06:48:12;5.50;99.90
7232;DHT22;3657;49.630;11.018;2023-12-28T06:50:39;5.50;99.90
7232;DHT22;3657;49.630;11.018;2023-12-28T06:53:05;5.40;99.90
7232;DHT22;3657;49.630;11.018;2023-12-28T06:55:32;5.40;99.90
7232;DHT22;3657;49.630;11.018;2023-12-28T06:58:01;5.40;99.90
7232;DHT22;3657;49.630;11.018;2023-12-28T07:00:28;5.30;99.90
7232;DHT22;3657;49.630;11.018;2023-12-28T07:02:55;5.30;99.90
7232;DHT22;3657;49.630;11.018;2023-12-28T07:05:22;5.20;99.90
7232;DHT22;3657;49.630;11.018;2023-12-28T07:07:49;5.20;99.90
7232;DHT22;3657;49.630;11.018;2023-12-28T07:10:15;5.20;99.90
7232;DHT22;3657;49.630;11.018;2023-12-28T07:12:42;5.40;99.90
7232;DHT22;3657;49.630;11.018;2023-12-28T07:15:10;5.40;99.90
7232;DHT22;3657;49.630;11.018;2023-12-28T07:17:39;5.40;99.90
7232;DHT22;3657;49.630;11.018;2023-12-28T07:20:08;5.40;99.90
7232;DHT22;3657;49.630;11.018;2023-12-28T07:22:36;5.50;99.90
7232;DHT22;3657;49.630;11.018;2023-12-28T07:25:04;5.50;99.90
7232;DHT22;3657;49.630;11.018;2023-12-28T07:27:31;5.70;99.90
7232;DHT22;3657;49.630;11.018;2023-12-28T07:29:58;5.80;99.90
7232;DHT22;3657;49.630;11.018;2023-12-28T07:32:26;5.80;99.90
7232;DHT22;3657;49.630;11.018;2023-12-28T07:34:52;6.00;99.90
7232;DHT22;3657;49.630;11.018;2023-12-28T07:37:19;6.10;99.90
7232;DHT22;3657;49.630;11.018;2023-12-28T07:39:46;6.10;99.90
7232;DHT22;3657;49.630;11.018;2023-12-28T07:42:13;6.10;99.90
7232;DHT22;3657;49.630;11.018;2023-12-28T07:44:40;6.10;99.90
7232;DHT22;3657;49.630;11.018;2023-12-28T07:47:07;6.00;99.90
7232;DHT22;3657;49.630;11.018;2023-12-28T07:49:35;5.90;99.90
7232;DHT22;3657;49.630;11.018;2023-12-28T07:52:02;5.90;99.90
7232;DHT22;3657;49.630;11.018;2023-12-28T07:54:29;5.90;99.90
7232;DHT22;3657;49.630;11.018;2023-12-28T07:56:55;5.90;99.90
7232;DHT22;3657;49.630;11.018;2023-12-28T07:59:22;6.20;99.90
7232;DHT22;3657;49.630;11.018;2023-12-28T08:01:49;6.20;99.90
7232;DHT22;3657;49.630;11.018;2023-12-28T08:04:15;6.30;99.90
7232;DHT22;3657;49.630;11.018;2023-12-28T08:06:43;6.30;99.90
7232;DHT22;3657;49.630;11.018;2023-12-28T08:09:10;6.20;99.90
7232;DHT22;3657;49.630;11.018;2023-12-28T08:11:37;6.20;99.90
7232;DHT22;3657;49.630;11.018;2023-12-28T08:14:05;6.40;99.90
7232;DHT22;3657;49.630;11.018;2023-12-28T08:16:31;6.70;99.90
7232;DHT22;3657;49.630;11.018;2023-12-28T08:19:00;6.60;99.90
7232;DHT22;3657;49.630;11.018;2023-12-28T08:21:27;6.60;99.90
7232;DHT22;3657;49.630;11.018;2023-12-28T08:23:55;6.60;99.90
7232;DHT22;3657;49.630;11.018;2023-12-28T08:26:21;6.50;99.90
7232;DHT22;3657;49.630;11.018;2023-12-28T08:28:48;6.40;99.90
7232;DHT22;3657;49.630;11.018;2023-12-28T08:31:15;6.40;99.90
7232;DHT22;3657;49.630;11.018;2023-12-28T08:33:42;6.30;99.90
7232;DHT22;3657;49.630;11.018;2023-12-28T08:36:09;6.40;99.90
7232;DHT22;3657;49.630;11.018;2023-12-28T08:38:36;6.50;99.90
7232;DHT22;3657;49.630;11.018;2023-12-28T08:41:04;6.60;99.90
7232;DHT22;3657;49.630;11.018;2023-12-28T08:43:35;6.60;99.90
7232;DHT22;3657;49.630;11.018;2023-12-28T08:46:02;6.60;99.90
7232;DHT22;3657;49.630;11.018;2023-12-28T08:48:29;6.60;99.90
7232;DHT22;3657;49.630;11.018;2023-12-28T08:50:56;6.60;99.90
7232;DHT22;3657;49.630;11.018;2023-12-28T08:53:22;6.50;99.90
7232;DHT22;3657;49.630;11.018;2023-12-28T08:55:49;6.50;99.90
7232;DHT22;3657;49.630;11.018;2023-12-28T08:58:18;6.30;99.90
7232;DHT22;3657;49.630;11.018;2023-12-28T09:00:44;6.30;99.90
7232;DHT22;3657;49.630;11.018;2023-12-28T09:03:12;6.30;99.90
7232;DHT22;3657;49.630;11.018;2023-12-28T09:05:39;6.30;99.90
7232;DHT22;3657;49.630;11.018;2023-12-28T09:08:06;6.20;99.90
7232;DHT22;3657;49.630;11.018;2023-12-28T09:10:33;6.20;99.90
7232;DHT22;3657;49.630;11.018;2023-12-28T09:13:00;6.30;99.90
7232;DHT22;3657;49.630;11.018;2023-12-28T09:15:28;6.40;99.90
7232;DHT22;3657;49.630;11.018;2023-12-28T09:17:56;6.40;99.90
7232;DHT22;3657;49.630;11.018;2023-12-28T09:20:22;6.50;99.90
7232;DHT22;3657;49.630;11.018;2023-12-28T09:22:49;6.60;99.90
7232;DHT22;3657;49.630;11.018;2023-12-28T09:25:21;6.60;99.90
7232;DHT22;3657;49.630;11.018;2023-12-28T09:27:48;6.70;99.90
7232;DHT22;3657;49.630;11.018;2023-12-28T09:30:15;6.70;99.90
7232;DHT22;3657;49.630;11.018;2023-12-28T09:32:43;6.70;99.90
7232;DHT22;3657;49.630;11.018;2023-12-28T09:35:10;6.60;99.90
7232;DHT22;3657;49.630;11.018;2023-12-28T09:37:36;6.60;99.90
7232;DHT22;3657;49.630;11.018;2023-12-28T09:40:03;6.50;99.90
7232;DHT22;3657;49.630;11.018;2023-12-28T09:42:36;6.50;99.90
7232;DHT22;3657;49.630;11.018;2023-12-28T09:45:06;6.50;99.90
7232;DHT22;3657;49.630;11.018;2023-12-28T09:47:35;6.50;99.90
7232;DHT22;3657;49.630;11.018;2023-12-28T09:50:04;6.50;99.90
7232;DHT22;3657;49.630;11.018;2023-12-28T09:52:31;6.60;99.90
7232;DHT22;3657;49.630;11.018;2023-12-28T09:54:58;6.50;99.90
7232;DHT22;3657;49.630;11.018;2023-12-28T09:57:24;6.60;99.90
7232;DHT22;3657;49.630;11.018;2023-12-28T09:59:51;6.80;99.90
7232;DHT22;3657;49.630;11.018;2023-12-28T10:02:18;6.80;99.90
7232;DHT22;3657;49.630;11.018;2023-12-28T10:04:45;6.80;99.90
7232;DHT22;3657;49.630;11.018;2023-12-28T10:07:13;6.80;99.90
7232;DHT22;3657;49.630;11.018;2023-12-28T10:09:40;7.00;99.90
7232;DHT22;3657;49.630;11.018;2023-12-28T10:12:07;7.00;99.90
7232;DHT22;3657;49.630;11.018;2023-12-28T10:14:34;7.10;99.90
7232;DHT22;3657;49.630;11.018;2023-12-28T10:17:01;7.10;99.90
7232;DHT22;3657;49.630;11.018;2023-12-28T10:19:28;7.30;99.90
7232;DHT22;3657;49.630;11.018;2023-12-28T10:21:55;7.40;99.90
7232;DHT22;3657;49.630;11.018;2023-12-28T10:24:23;7.30;99.90
7232;DHT22;3657;49.630;11.018;2023-12-28T10:26:50;7.30;99.90
7232;DHT22;3657;49.630;11.018;2023-12-28T10:29:17;7.30;99.90
7232;DHT22;3657;49.630;11.018;2023-12-28T10:31:43;7.30;99.90
7232;DHT22;3657;49.630;11.018;2023-12-28T10:34:14;7.30;99.90
7232;DHT22;3657;49.630;11.018;2023-12-28T10:36:41;7.30;99.90
7232;DHT22;3657;49.630;11.018;2023-12-28T10:39:09;7.20;99.90
7232;DHT22;3657;49.630;11.018;2023-12-28T10:41:40;7.20;99.90
7232;DHT22;3657;49.630;11.018;2023-12-28T10:44:09;7.20;99.90
7232;DHT22;3657;49.630;11.018;2023-12-28T10:46:39;7.10;99.90
7232;DHT22;3657;49.630;11.018;2023-12-28T10:49:10;7.20;99.90
7232;DHT22;3657;49.630;11.018;2023-12-28T10:51:41;7.20;99.90
7232;DHT22;3657;49.630;11.018;2023-12-28T10:54:20;7.30;99.90
7232;DHT22;3657;49.630;11.018;2023-12-28T10:56:55;7.40;99.90
7232;DHT22;3657;49.630;11.018;2023-12-28T10:59:39;7.60;99.90
7232;DHT22;3657;49.630;11.018;2023-12-28T11:02:09;7.70;99.90
7232;DHT22;3657;49.630;11.018;2023-12-28T11:04:40;7.70;99.90
7232;DHT22;3657;49.630;11.018;2023-12-28T11:07:09;7.70;99.90
7232;DHT22;3657;49.630;11.018;2023-12-28T11:09:37;7.70;99.90
7232;DHT22;3657;49.630;11.018;2023-12-28T11:12:07;7.60;99.90
7232;DHT22;3657;49.630;11.018;2023-12-28T11:14:36;7.60;99.90
7232;DHT22;3657;49.630;11.018;2023-12-28T11:17:05;7.60;99.90
7232;DHT22;3657;49.630;11.018;2023-12-28T11:19:32;7.60;99.90
7232;DHT22;3657;49.630;11.018;2023-12-28T11:22:01;7.60;99.90
7232;DHT22;3657;49.630;11.018;2023-12-28T11:24:28;7.60;99.90
7232;DHT22;3657;49.630;11.018;2023-12-28T11:26:56;7.60;99.90
7232;DHT22;3657;49.630;11.018;2023-12-28T11:29:24;7.60;99.90
7232;DHT22;3657;49.630;11.018;2023-12-28T11:31:51;7.50;99.90
7232;DHT22;3657;49.630;11.018;2023-12-28T11:34:18;7.50;99.90
7232;DHT22;3657;49.630;11.018;2023-12-28T11:36:48;7.50;99.90
7232;DHT22;3657;49.630;11.018;2023-12-28T11:39:29;7.40;99.90
7232;DHT22;3657;49.630;11.018;2023-12-28T11:42:02;7.40;99.90
7232;DHT22;3657;49.630;11.018;2023-12-28T11:44:31;7.40;99.90
7232;DHT22;3657;49.630;11.018;2023-12-28T11:46:58;7.40;99.90
7232;DHT22;3657;49.630;11.018;2023-12-28T11:49:26;7.40;99.90
7232;DHT22;3657;49.630;11.018;2023-12-28T11:51:55;7.40;99.90
7232;DHT22;3657;49.630;11.018;2023-12-28T11:54:23;7.40;99.90
7232;DHT22;3657;49.630;11.018;2023-12-28T11:56:50;7.40;99.90
7232;DHT22;3657;49.630;11.018;2023-12-28T11:59:17;7.40;99.90
7232;DHT22;3657;49.630;11.018;2023-12-28T12:01:49;7.40;99.90
7232;DHT22;3657;49.630;11.018;2023-12-28T12:04:16;7.50;99.90
7232;DHT22;3657;49.630;11.018;2023-12-28T12:06:42;7.50;99.90
7232;DHT22;3657;49.630;11.018;2023-12-28T12:09:11;7.50;99.90
7232;DHT22;3657;49.630;11.018;2023-12-28T12:11:37;7.50;99.90
7232;DHT22;3657;49.630;11.018;2023-12-28T12:14:08;7.50;99.90
7232;DHT22;3657;49.630;11.018;2023-12-28T12:16:35;7.50;99.90
7232;DHT22;3657;49.630;11.018;2023-12-28T12:19:03;7.60;99.90
7232;DHT22;3657;49.630;11.018;2023-12-28T12:21:32;7.70;99.90
7232;DHT22;3657;49.630;11.018;2023-12-28T12:23:59;7.70;99.90
7232;DHT22;3657;49.630;11.018;2023-12-28T12:26:26;7.80;99.90
7232;DHT22;3657;49.630;11.018;2023-12-28T12:28:53;7.80;99.90
7232;DHT22;3657;49.630;11.018;2023-12-28T12:31:20;7.80;99.90
7232;DHT22;3657;49.630;11.018;2023-12-28T12:33:46;7.80;99.90
7232;DHT22;3657;49.630;11.018;2023-12-28T12:36:15;7.90;99.90
7232;DHT22;3657;49.630;11.018;2023-12-28T12:38:41;7.90;99.90
7232;DHT22;3657;49.630;11.018;2023-12-28T12:41:10;8.00;99.90
7232;DHT22;3657;49.630;11.018;2023-12-28T12:43:37;8.10;99.90
7232;DHT22;3657;49.630;11.018;2023-12-28T12:46:04;8.20;99.90
7232;DHT22;3657;49.630;11.018;2023-12-28T12:48:30;8.20;99.90
7232;DHT22;3657;49.630;11.018;2023-12-28T12:50:57;8.20;99.90
7232;DHT22;3657;49.630;11.018;2023-12-28T12:53:25;8.20;99.90
7232;DHT22;3657;49.630;11.018;2023-12-28T12:55:58;8.10;99.90
7232;DHT22;3657;49.630;11.018;2023-12-28T12:58:25;8.10;99.90
7232;DHT22;3657;49.630;11.018;2023-12-28T13:00:53;8.10;99.90
7232;DHT22;3657;49.630;11.018;2023-12-28T13:03:20;8.20;99.90
7232;DHT22;3657;49.630;11.018;2023-12-28T13:05:46;8.20;99.90
7232;DHT22;3657;49.630;11.018;2023-12-28T13:08:13;8.30;99.90
7232;DHT22;3657;49.630;11.018;2023-12-28T13:10:41;8.30;99.90
7232;DHT22;3657;49.630;11.018;2023-12-28T13:13:08;8.40;99.90
7232;DHT22;3657;49.630;11.018;2023-12-28T13:15:35;8.30;99.90
7232;DHT22;3657;49.630;11.018;2023-12-28T13:18:02;8.30;99.90
7232;DHT22;3657;49.630;11.018;2023-12-28T13:20:29;8.30;99.90
7232;DHT22;3657;49.630;11.018;2023-12-28T13:22:56;8.20;99.90
7232;DHT22;3657;49.630;11.018;2023-12-28T13:25:23;8.20;99.90
7232;DHT22;3657;49.630;11.018;2023-12-28T13:27:51;8.20;99.90
7232;DHT22;3657;49.630;11.018;2023-12-28T13:30:18;8.20;99.90
7232;DHT22;3657;49.630;11.018;2023-12-28T13:32:47;8.20;99.90
7232;DHT22;3657;49.630;11.018;2023-12-28T13:35:14;8.10;99.90
7232;DHT22;3657;49.630;11.018;2023-12-28T13:37:40;8.10;99.90
7232;DHT22;3657;49.630;11.018;2023-12-28T13:40:08;8.10;99.90
7232;DHT22;3657;49.630;11.018;2023-12-28T13:42:35;8.10;99.90
7232;DHT22;3657;49.630;11.018;2023-12-28T13:45:05;8.10;99.90
7232;DHT22;3657;49.630;11.018;2023-12-28T13:47:31;8.10;99.90
7232;DHT22;3657;49.630;11.018;2023-12-28T13:49:58;8.10;99.90
7232;DHT22;3657;49.630;11.018;2023-12-28T13:52:25;8.10;99.90
7232;DHT22;3657;49.630;11.018;2023-12-28T13:54:53;8.00;99.90
7232;DHT22;3657;49.630;11.018;2023-12-28T13:57:20;8.00;99.90
7232;DHT22;3657;49.630;11.018;2023-12-28T13:59:47;8.00;99.90
7232;DHT22;3657;49.630;11.018;2023-12-28T14:02:15;8.00;99.90
7232;DHT22;3657;49.630;11.018;2023-12-28T14:04:42;8.10;99.90
7232;DHT22;3657;49.630;11.018;2023-12-28T14:07:08;8.10;99.90
7232;DHT22;3657;49.630;11.018;2023-12-28T14:09:35;8.10;99.90
7232;DHT22;3657;49.630;11.018;2023-12-28T14:12:03;8.10;99.90
7232;DHT22;3657;49.630;11.018;2023-12-28T14:14:30;8.10;99.90
7232;DHT22;3657;49.630;11.018;2023-12-28T14:16:56;8.10;99.90
7232;DHT22;3657;49.630;11.018;2023-12-28T14:19:25;8.10;99.90
7232;DHT22;3657;49.630;11.018;2023-12-28T14:21:52;8.20;99.90
7232;DHT22;3657;49.630;11.018;2023-12-28T14:24:19;8.20;99.90
7232;DHT22;3657;49.630;11.018;2023-12-28T14:26:47;8.20;99.90
7232;DHT22;3657;49.630;11.018;2023-12-28T14:29:14;8.20;99.90
7232;DHT22;3657;49.630;11.018;2023-12-28T14:31:42;8.20;99.90
7232;DHT22;3657;49.630;11.018;2023-12-28T14:34:10;8.20;99.90
7232;DHT22;3657;49.630;11.018;2023-12-28T14:36:38;8.20;99.90
7232;DHT22;3657;49.630;11.018;2023-12-28T14:39:08;8.30;99.90
7232;DHT22;3657;49.630;11.018;2023-12-28T14:41:36;8.20;99.90
7232;DHT22;3657;49.630;11.018;2023-12-28T14:44:03;8.20;99.90
7232;DHT22;3657;49.630;11.018;2023-12-28T14:46:30;8.20;99.90
7232;DHT22;3657;49.630;11.018;2023-12-28T14:48:57;8.20;99.90
7232;DHT22;3657;49.630;11.018;2023-12-28T14:51:24;8.30;99.90
7232;DHT22;3657;49.630;11.018;2023-12-28T14:53:52;8.30;99.90
7232;DHT22;3657;49.630;11.018;2023-12-28T14:56:19;8.30;99.90
7232;DHT22;3657;49.630;11.018;2023-12-28T14:58:46;8.30;99.90
7232;DHT22;3657;49.630;11.018;2023-12-28T15:01:13;8.30;99.90
7232;DHT22;3657;49.630;11.018;2023-12-28T15:03:40;8.20;99.90
7232;DHT22;3657;49.630;11.018;2023-12-28T15:06:07;8.20;99.90
7232;DHT22;3657;49.630;11.018;2023-12-28T15:08:34;8.20;99.90
7232;DHT22;3657;49.630;11.018;2023-12-28T15:11:03;8.30;99.90
7232;DHT22;3657;49.630;11.018;2023-12-28T15:13:32;8.30;99.90
7232;DHT22;3657;49.630;11.018;2023-12-28T15:16:00;8.40;99.90
7232;DHT22;3657;49.630;11.018;2023-12-28T15:18:29;8.40;99.90
7232;DHT22;3657;49.630;11.018;2023-12-28T15:20:56;8.40;99.90
7232;DHT22;3657;49.630;11.018;2023-12-28T15:23:24;8.40;99.90
7232;DHT22;3657;49.630;11.018;2023-12-28T15:25:52;8.40;99.90
7232;DHT22;3657;49.630;11.018;2023-12-28T15:28:20;8.40;99.90
7232;DHT22;3657;49.630;11.018;2023-12-28T15:30:48;8.30;99.90
7232;DHT22;3657;49.630;11.018;2023-12-28T15:33:15;8.30;99.90
7232;DHT22;3657;49.630;11.018;2023-12-28T15:35:42;8.40;99.90
7232;DHT22;3657;49.630;11.018;2023-12-28T15:38:08;8.30;99.90
7232;DHT22;3657;49.630;11.018;2023-12-28T15:40:35;8.40;99.90
7232;DHT22;3657;49.630;11.018;2023-12-28T15:43:02;8.40;99.90
7232;DHT22;3657;49.630;11.018;2023-12-28T15:45:30;8.40;99.90
7232;DHT22;3657;49.630;11.018;2023-12-28T15:47:59;8.30;99.90
7232;DHT22;3657;49.630;11.018;2023-12-28T15:50:26;8.30;99.90
7232;DHT22;3657;49.630;11.018;2023-12-28T15:52:53;8.30;99.90
7232;DHT22;3657;49.630;11.018;2023-12-28T15:55:19;8.30;99.90
7232;DHT22;3657;49.630;11.018;2023-12-28T15:57:47;8.40;99.90
7232;DHT22;3657;49.630;11.018;2023-12-28T16:00:16;8.40;99.90
7232;DHT22;3657;49.630;11.018;2023-12-28T16:02:44;8.40;99.90
7232;DHT22;3657;49.630;11.018;2023-12-28T16:05:11;8.40;99.90